sensor_id;sensor_type;location;lat;lon;timestamp;temperature;humidity
4386;DHT22;2207;53.540;10.042;2023-11-19T00:00:43;5.40;93.10
4386;DHT22;2207;53.540;10.042;2023-11-19T00:03:10;5.40;93.10
4386;DHT22;2207;53.540;10.042;2023-11-19T00:05:38;5.40;93.40
4386;DHT22;2207;53.540;10.042;2023-11-19T00:08:05;5.40;93.10
4386;DHT22;2207;53.540;10.042;2023-11-19T00:10:32;5.40;93.40
4386;DHT22;2207;53.540;10.042;2023-11-19T00:13:00;5.40;93.10
4386;DHT22;2207;53.540;10.042;2023-11-19T00:15:28;5.40;93.20
4386;DHT22;2207;53.540;10.042;2023-11-19T00:17:54;5.40;93.20
4386;DHT22;2207;53.540;10.042;2023-11-19T00:20:21;5.40;93.20
4386;DHT22;2207;53.540;10.042;2023-11-19T00:22:48;5.40;93.40
4386;DHT22;2207;53.540;10.042;2023-11-19T00:25:16;5.40;93.20
4386;DHT22;2207;53.540;10.042;2023-11-19T00:27:43;5.40;93.20
4386;DHT22;2207;53.540;10.042;2023-11-19T00:30:11;5.40;93.20
4386;DHT22;2207;53.540;10.042;2023-11-19T00:32:39;5.40;93.20
4386;DHT22;2207;53.540;10.042;2023-11-19T00:35:06;5.40;93.30
4386;DHT22;2207;53.540;10.042;2023-11-19T00:37:33;5.40;93.30
4386;DHT22;2207;53.540;10.042;2023-11-19T00:40:00;5.40;93.30
4386;DHT22;2207;53.540;10.042;2023-11-19T00:42:30;5.40;93.30
4386;DHT22;2207;53.540;10.042;2023-11-19T00:44:57;5.40;93.30
4386;DHT22;2207;53.540;10.042;2023-11-19T00:47:25;5.40;93.40
4386;DHT22;2207;53.540;10.042;2023-11-19T00:49:52;5.40;93.40
4386;DHT22;2207;53.540;10.042;2023-11-19T00:52:18;5.40;93.50
4386;DHT22;2207;53.540;10.042;2023-11-19T00:54:45;5.50;93.50
4386;DHT22;2207;53.540;10.042;2023-11-19T00:57:12;5.50;93.50
4386;DHT22;2207;53.540;10.042;2023-11-19T00:59:40;5.50;93.60
4386;DHT22;2207;53.540;10.042;2023-11-19T01:02:07;5.50;93.60
4386;DHT22;2207;53.540;10.042;2023-11-19T01:04:35;5.50;93.60
4386;DHT22;2207;53.540;10.042;2023-11-19T01:07:02;5.50;93.60
4386;DHT22;2207;53.540;10.042;2023-11-19T01:09:30;5.50;93.60
4386;DHT22;2207;53.540;10.042;2023-11-19T01:11:57;5.50;93.70
4386;DHT22;2207;53.540;10.042;2023-11-19T01:14:28;5.50;93.70
4386;DHT22;2207;53.540;10.042;2023-11-19T01:16:55;5.50;93.70
4386;DHT22;2207;53.540;10.042;2023-11-19T01:19:23;5.50;93.80
4386;DHT22;2207;53.540;10.042;2023-11-19T01:21:51;5.50;93.70
4386;DHT22;2207;53.540;10.042;2023-11-19T01:24:16;5.50;93.70
4386;DHT22;2207;53.540;10.042;2023-11-19T01:26:43;5.50;93.70
4386;DHT22;2207;53.540;10.042;2023-11-19T01:29:10;5.50;94.10
4386;DHT22;2207;53.540;10.042;2023-11-19T01:31:39;5.50;93.70
4386;DHT22;2207;53.540;10.042;2023-11-19T01:34:05;5.60;94.10
4386;DHT22;2207;53.540;10.042;2023-11-19T01:36:32;5.50;93.70
4386;DHT22;2207;53.540;10.042;2023-11-19T01:39:00;5.50;93.70
4386;DHT22;2207;53.540;10.042;2023-11-19T01:41:26;5.60;93.80
4386;DHT22;2207;53.540;10.042;2023-11-19T01:43:53;5.60;93.80
4386;DHT22;2207;53.540;10.042;2023-11-19T01:46:20;5.60;93.80
4386;DHT22;2207;53.540;10.042;2023-11-19T01:48:46;5.60;93.80
4386;DHT22;2207;53.540;10.042;2023-11-19T01:51:13;5.60;93.80
4386;DHT22;2207;53.540;10.042;2023-11-19T01:53:41;5.60;93.80
4386;DHT22;2207;53.540;10.042;2023-11-19T01:56:12;5.60;93.80
4386;DHT22;2207;53.540;10.042;2023-11-19T01:58:39;5.60;93.80
4386;DHT22;2207;53.540;10.042;2023-11-19T02:01:07;5.60;93.80
4386;DHT22;2207;53.540;10.042;2023-11-19T02:03:34;5.60;93.80
4386;DHT22;2207;53.540;10.042;2023-11-19T02:06:00;5.60;93.80
4386;DHT22;2207;53.540;10.042;2023-11-19T02:08:30;5.70;94.00
4386;DHT22;2207;53.540;10.042;2023-11-19T02:10:57;5.60;93.80
4386;DHT22;2207;53.540;10.042;2023-11-19T02:13:26;5.70;93.80
4386;DHT22;2207;53.540;10.042;2023-11-19T02:15:54;5.60;93.80
4386;DHT22;2207;53.540;10.042;2023-11-19T02:18:22;5.70;93.90
4386;DHT22;2207;53.540;10.042;2023-11-19T02:20:48;5.70;93.90
4386;DHT22;2207;53.540;10.042;2023-11-19T02:23:15;5.70;93.90
4386;DHT22;2207;53.540;10.042;2023-11-19T02:25:43;5.70;93.90
4386;DHT22;2207;53.540;10.042;2023-11-19T02:28:11;5.70;94.00
4386;DHT22;2207;53.540;10.042;2023-11-19T02:30:38;5.70;94.00
4386;DHT22;2207;53.540;10.042;2023-11-19T02:33:04;5.70;94.00
4386;DHT22;2207;53.540;10.042;2023-11-19T02:35:31;5.70;94.00
4386;DHT22;2207;53.540;10.042;2023-11-19T02:37:59;5.70;94.00
4386;DHT22;2207;53.540;10.042;2023-11-19T02:40:25;5.80;94.00
4386;DHT22;2207;53.540;10.042;2023-11-19T02:42:52;5.70;94.00
4386;DHT22;2207;53.540;10.042;2023-11-19T02:45:22;5.80;94.10
4386;DHT22;2207;53.540;10.042;2023-11-19T02:48:07;5.70;94.00
4386;DHT22;2207;53.540;10.042;2023-11-19T02:50:34;5.80;94.10
4386;DHT22;2207;53.540;10.042;2023-11-19T02:53:00;5.70;94.00
4386;DHT22;2207;53.540;10.042;2023-11-19T02:55:27;5.70;94.10
4386;DHT22;2207;53.540;10.042;2023-11-19T02:57:56;5.70;94.10
4386;DHT22;2207;53.540;10.042;2023-11-19T03:00:24;5.80;94.20
4386;DHT22;2207;53.540;10.042;2023-11-19T03:02:57;5.80;94.20
4386;DHT22;2207;53.540;10.042;2023-11-19T03:05:26;5.80;94.30
4386;DHT22;2207;53.540;10.042;2023-11-19T03:07:55;5.90;94.40
4386;DHT22;2207;53.540;10.042;2023-11-19T03:10:22;6.00;94.40
4386;DHT22;2207;53.540;10.042;2023-11-19T03:12:49;6.00;94.40
4386;DHT22;2207;53.540;10.042;2023-11-19T03:15:16;6.00;94.40
4386;DHT22;2207;53.540;10.042;2023-11-19T03:17:42;6.00;94.40
4386;DHT22;2207;53.540;10.042;2023-11-19T03:20:09;6.00;94.30
4386;DHT22;2207;53.540;10.042;2023-11-19T03:22:38;6.00;94.30
4386;DHT22;2207;53.540;10.042;2023-11-19T03:25:07;6.00;94.30
4386;DHT22;2207;53.540;10.042;2023-11-19T03:27:34;6.00;94.30
4386;DHT22;2207;53.540;10.042;2023-11-19T03:30:01;6.10;94.40
4386;DHT22;2207;53.540;10.042;2023-11-19T03:32:27;6.00;94.30
4386;DHT22;2207;53.540;10.042;2023-11-19T03:34:54;6.10;94.40
4386;DHT22;2207;53.540;10.042;2023-11-19T03:37:21;6.10;94.40
4386;DHT22;2207;53.540;10.042;2023-11-19T03:39:50;6.10;94.70
4386;DHT22;2207;53.540;10.042;2023-11-19T03:42:18;6.10;94.50
4386;DHT22;2207;53.540;10.042;2023-11-19T03:44:45;6.10;94.80
4386;DHT22;2207;53.540;10.042;2023-11-19T03:47:12;6.20;94.50
4386;DHT22;2207;53.540;10.042;2023-11-19T03:49:42;6.20;94.50
4386;DHT22;2207;53.540;10.042;2023-11-19T03:52:09;6.20;94.50
4386;DHT22;2207;53.540;10.042;2023-11-19T03:54:36;6.20;94.50
4386;DHT22;2207;53.540;10.042;2023-11-19T03:57:04;6.20;94.50
4386;DHT22;2207;53.540;10.042;2023-11-19T03:59:30;6.20;94.40
4386;DHT22;2207;53.540;10.042;2023-11-19T04:01:57;6.20;94.40
4386;DHT22;2207;53.540;10.042;2023-11-19T04:04:26;6.20;94.40
4386;DHT22;2207;53.540;10.042;2023-11-19T04:06:52;6.30;94.50
4386;DHT22;2207;53.540;10.042;2023-11-19T04:09:19;6.30;94.50
4386;DHT22;2207;53.540;10.042;2023-11-19T04:11:46;6.30;94.50
4386;DHT22;2207;53.540;10.042;2023-11-19T04:14:14;6.30;94.50
4386;DHT22;2207;53.540;10.042;2023-11-19T04:16:43;6.30;94.60
4386;DHT22;2207;53.540;10.042;2023-11-19T04:19:10;6.30;94.50
4386;DHT22;2207;53.540;10.042;2023-11-19T04:21:37;6.40;94.60
4386;DHT22;2207;53.540;10.042;2023-11-19T04:24:03;6.40;94.60
4386;DHT22;2207;53.540;10.042;2023-11-19T04:26:30;6.40;94.60
4386;DHT22;2207;53.540;10.042;2023-11-19T04:28:57;6.40;94.60
4386;DHT22;2207;53.540;10.042;2023-11-19T04:31:26;6.40;94.60
4386;DHT22;2207;53.540;10.042;2023-11-19T04:33:54;6.40;94.50
4386;DHT22;2207;53.540;10.042;2023-11-19T04:36:21;6.40;94.60
4386;DHT22;2207;53.540;10.042;2023-11-19T04:38:49;6.40;94.60
4386;DHT22;2207;53.540;10.042;2023-11-19T04:41:16;6.40;94.60
4386;DHT22;2207;53.540;10.042;2023-11-19T04:43:43;6.50;94.60
4386;DHT22;2207;53.540;10.042;2023-11-19T04:46:09;6.50;94.70
4386;DHT22;2207;53.540;10.042;2023-11-19T04:48:37;6.50;94.70
4386;DHT22;2207;53.540;10.042;2023-11-19T04:51:04;6.50;94.70
4386;DHT22;2207;53.540;10.042;2023-11-19T04:53:31;6.50;94.70
4386;DHT22;2207;53.540;10.042;2023-11-19T04:55:58;6.60;94.80
4386;DHT22;2207;53.540;10.042;2023-11-19T04:58:25;6.60;94.80
4386;DHT22;2207;53.540;10.042;2023-11-19T05:00:51;6.60;94.70
4386;DHT22;2207;53.540;10.042;2023-11-19T05:03:18;6.60;94.80
4386;DHT22;2207;53.540;10.042;2023-11-19T05:05:46;6.70;94.80
4386;DHT22;2207;53.540;10.042;2023-11-19T05:08:12;6.70;94.80
4386;DHT22;2207;53.540;10.042;2023-11-19T05:10:39;6.70;94.80
4386;DHT22;2207;53.540;10.042;2023-11-19T05:13:06;6.80;94.90
4386;DHT22;2207;53.540;10.042;2023-11-19T05:15:33;6.80;94.90
4386;DHT22;2207;53.540;10.042;2023-11-19T05:17:59;6.80;94.90
4386;DHT22;2207;53.540;10.042;2023-11-19T05:20:26;6.90;94.90
4386;DHT22;2207;53.540;10.042;2023-11-19T05:22:54;6.90;94.90
4386;DHT22;2207;53.540;10.042;2023-11-19T05:25:20;6.90;94.90
4386;DHT22;2207;53.540;10.042;2023-11-19T05:27:47;7.00;95.00
4386;DHT22;2207;53.540;10.042;2023-11-19T05:30:14;7.00;95.00
4386;DHT22;2207;53.540;10.042;2023-11-19T05:32:40;7.10;95.10
4386;DHT22;2207;53.540;10.042;2023-11-19T05:35:07;7.10;95.10
4386;DHT22;2207;53.540;10.042;2023-11-19T05:37:34;7.20;95.10
4386;DHT22;2207;53.540;10.042;2023-11-19T05:40:03;7.20;95.10
4386;DHT22;2207;53.540;10.042;2023-11-19T05:42:32;7.30;95.10
4386;DHT22;2207;53.540;10.042;2023-11-19T05:44:59;7.30;95.10
4386;DHT22;2207;53.540;10.042;2023-11-19T05:47:26;7.40;95.20
4386;DHT22;2207;53.540;10.042;2023-11-19T05:49:52;7.40;95.20
4386;DHT22;2207;53.540;10.042;2023-11-19T05:52:19;7.50;95.30
4386;DHT22;2207;53.540;10.042;2023-11-19T05:54:47;7.60;95.30
4386;DHT22;2207;53.540;10.042;2023-11-19T05:57:18;7.60;95.30
4386;DHT22;2207;53.540;10.042;2023-11-19T05:59:48;7.70;95.40
4386;DHT22;2207;53.540;10.042;2023-11-19T06:02:15;7.80;95.50
4386;DHT22;2207;53.540;10.042;2023-11-19T06:04:41;7.90;95.60
4386;DHT22;2207;53.540;10.042;2023-11-19T06:07:10;8.10;95.70
4386;DHT22;2207;53.540;10.042;2023-11-19T06:09:36;8.20;95.90
4386;DHT22;2207;53.540;10.042;2023-11-19T06:12:03;8.40;96.10
4386;DHT22;2207;53.540;10.042;2023-11-19T06:14:33;8.60;96.20
4386;DHT22;2207;53.540;10.042;2023-11-19T06:16:59;8.80;96.30
4386;DHT22;2207;53.540;10.042;2023-11-19T06:19:26;8.90;96.30
4386;DHT22;2207;53.540;10.042;2023-11-19T06:21:53;9.10;96.30
4386;DHT22;2207;53.540;10.042;2023-11-19T06:24:20;9.20;96.30
4386;DHT22;2207;53.540;10.042;2023-11-19T06:26:46;9.40;96.40
4386;DHT22;2207;53.540;10.042;2023-11-19T06:29:13;9.50;96.30
4386;DHT22;2207;53.540;10.042;2023-11-19T06:31:45;9.60;96.30
4386;DHT22;2207;53.540;10.042;2023-11-19T06:34:14;9.70;96.30
4386;DHT22;2207;53.540;10.042;2023-11-19T06:36:40;9.70;96.30
4386;DHT22;2207;53.540;10.042;2023-11-19T06:39:08;9.80;96.40
4386;DHT22;2207;53.540;10.042;2023-11-19T06:41:36;9.90;96.40
4386;DHT22;2207;53.540;10.042;2023-11-19T06:44:03;9.90;96.30
4386;DHT22;2207;53.540;10.042;2023-11-19T06:46:30;10.00;95.80
4386;DHT22;2207;53.540;10.042;2023-11-19T06:48:58;10.00;95.80
4386;DHT22;2207;53.540;10.042;2023-11-19T06:51:25;10.10;95.90
4386;DHT22;2207;53.540;10.042;2023-11-19T06:53:52;10.20;96.00
4386;DHT22;2207;53.540;10.042;2023-11-19T06:56:19;10.30;96.00
4386;DHT22;2207;53.540;10.042;2023-11-19T06:58:45;10.30;96.00
4386;DHT22;2207;53.540;10.042;2023-11-19T07:01:13;10.40;96.00
4386;DHT22;2207;53.540;10.042;2023-11-19T07:03:39;10.40;95.90
4386;DHT22;2207;53.540;10.042;2023-11-19T07:06:08;10.50;96.00
4386;DHT22;2207;53.540;10.042;2023-11-19T07:08:34;10.50;95.90
4386;DHT22;2207;53.540;10.042;2023-11-19T07:11:01;10.60;95.90
4386;DHT22;2207;53.540;10.042;2023-11-19T07:13:29;10.60;95.80
4386;DHT22;2207;53.540;10.042;2023-11-19T07:15:55;10.60;95.80
4386;DHT22;2207;53.540;10.042;2023-11-19T07:18:22;10.60;95.80
4386;DHT22;2207;53.540;10.042;2023-11-19T07:20:49;10.70;95.80
4386;DHT22;2207;53.540;10.042;2023-11-19T07:23:17;10.80;95.90
4386;DHT22;2207;53.540;10.042;2023-11-19T07:25:44;10.80;95.90
4386;DHT22;2207;53.540;10.042;2023-11-19T07:28:12;10.90;95.90
4386;DHT22;2207;53.540;10.042;2023-11-19T07:30:38;10.90;95.80
4386;DHT22;2207;53.540;10.042;2023-11-19T07:33:05;10.90;95.70
4386;DHT22;2207;53.540;10.042;2023-11-19T07:35:31;10.90;95.60
4386;DHT22;2207;53.540;10.042;2023-11-19T07:37:58;10.90;96.00
4386;DHT22;2207;53.540;10.042;2023-11-19T07:40:26;11.00;95.70
4386;DHT22;2207;53.540;10.042;2023-11-19T07:42:53;11.00;95.70
4386;DHT22;2207;53.540;10.042;2023-11-19T07:45:19;11.00;95.70
4386;DHT22;2207;53.540;10.042;2023-11-19T07:47:46;11.00;95.70
4386;DHT22;2207;53.540;10.042;2023-11-19T07:50:13;11.10;95.70
4386;DHT22;2207;53.540;10.042;2023-11-19T07:52:42;11.10;95.70
4386;DHT22;2207;53.540;10.042;2023-11-19T07:55:08;11.20;95.80
4386;DHT22;2207;53.540;10.042;2023-11-19T07:57:38;11.20;95.80
4386;DHT22;2207;53.540;10.042;2023-11-19T08:00:05;11.30;95.80
4386;DHT22;2207;53.540;10.042;2023-11-19T08:02:32;11.40;95.90
4386;DHT22;2207;53.540;10.042;2023-11-19T08:04:58;11.40;95.80
4386;DHT22;2207;53.540;10.042;2023-11-19T08:07:25;11.40;95.60
4386;DHT22;2207;53.540;10.042;2023-11-19T08:09:52;11.40;95.60
4386;DHT22;2207;53.540;10.042;2023-11-19T08:12:18;11.50;95.50
4386;DHT22;2207;53.540;10.042;2023-11-19T08:14:46;11.50;95.50
4386;DHT22;2207;53.540;10.042;2023-11-19T08:17:14;11.50;95.40
4386;DHT22;2207;53.540;10.042;2023-11-19T08:19:41;11.60;95.50
4386;DHT22;2207;53.540;10.042;2023-11-19T08:22:07;11.60;95.30
4386;DHT22;2207;53.540;10.042;2023-11-19T08:24:35;11.60;95.20
4386;DHT22;2207;53.540;10.042;2023-11-19T08:27:01;11.60;95.30
4386;DHT22;2207;53.540;10.042;2023-11-19T08:29:28;11.60;95.20
4386;DHT22;2207;53.540;10.042;2023-11-19T08:31:56;11.70;95.40
4386;DHT22;2207;53.540;10.042;2023-11-19T08:34:22;11.80;95.30
4386;DHT22;2207;53.540;10.042;2023-11-19T08:36:51;11.80;95.10
4386;DHT22;2207;53.540;10.042;2023-11-19T08:39:18;11.80;95.00
4386;DHT22;2207;53.540;10.042;2023-11-19T08:41:46;11.80;94.90
4386;DHT22;2207;53.540;10.042;2023-11-19T08:44:12;11.80;95.00
4386;DHT22;2207;53.540;10.042;2023-11-19T08:49:14;11.90;94.90
4386;DHT22;2207;53.540;10.042;2023-11-19T08:51:40;11.90;94.80
4386;DHT22;2207;53.540;10.042;2023-11-19T08:54:07;11.90;94.70
4386;DHT22;2207;53.540;10.042;2023-11-19T08:56:34;11.90;94.60
4386;DHT22;2207;53.540;10.042;2023-11-19T08:59:01;11.90;94.60
4386;DHT22;2207;53.540;10.042;2023-11-19T09:01:27;11.90;94.60
4386;DHT22;2207;53.540;10.042;2023-11-19T09:03:54;12.00;94.60
4386;DHT22;2207;53.540;10.042;2023-11-19T09:06:22;12.00;94.90
4386;DHT22;2207;53.540;10.042;2023-11-19T09:08:49;12.00;94.50
4386;DHT22;2207;53.540;10.042;2023-11-19T09:11:15;12.10;94.60
4386;DHT22;2207;53.540;10.042;2023-11-19T09:13:43;12.10;94.70
4386;DHT22;2207;53.540;10.042;2023-11-19T09:16:11;12.20;94.60
4386;DHT22;2207;53.540;10.042;2023-11-19T09:18:38;12.30;94.70
4386;DHT22;2207;53.540;10.042;2023-11-19T09:21:07;12.40;94.80
4386;DHT22;2207;53.540;10.042;2023-11-19T09:23:35;12.50;94.60
4386;DHT22;2207;53.540;10.042;2023-11-19T09:26:04;12.60;94.40
4386;DHT22;2207;53.540;10.042;2023-11-19T09:28:31;12.60;94.20
4386;DHT22;2207;53.540;10.042;2023-11-19T09:30:58;12.60;94.10
4386;DHT22;2207;53.540;10.042;2023-11-19T09:33:25;12.60;93.90
4386;DHT22;2207;53.540;10.042;2023-11-19T09:35:51;12.50;93.70
4386;DHT22;2207;53.540;10.042;2023-11-19T09:38:18;12.60;93.70
4386;DHT22;2207;53.540;10.042;2023-11-19T09:40:46;12.60;94.00
4386;DHT22;2207;53.540;10.042;2023-11-19T09:43:13;12.80;94.10
4386;DHT22;2207;53.540;10.042;2023-11-19T09:45:42;13.00;94.10
4386;DHT22;2207;53.540;10.042;2023-11-19T09:48:15;13.10;93.70
4386;DHT22;2207;53.540;10.042;2023-11-19T09:50:42;13.10;93.50
4386;DHT22;2207;53.540;10.042;2023-11-19T09:53:09;13.10;92.80
4386;DHT22;2207;53.540;10.042;2023-11-19T09:55:35;13.10;92.80
4386;DHT22;2207;53.540;10.042;2023-11-19T09:58:03;13.00;92.50
4386;DHT22;2207;53.540;10.042;2023-11-19T10:00:33;12.90;92.20
4386;DHT22;2207;53.540;10.042;2023-11-19T10:03:00;12.70;91.90
4386;DHT22;2207;53.540;10.042;2023-11-19T10:05:27;12.50;91.80
4386;DHT22;2207;53.540;10.042;2023-11-19T10:07:54;12.30;91.80
4386;DHT22;2207;53.540;10.042;2023-11-19T10:10:20;12.20;91.90
4386;DHT22;2207;53.540;10.042;2023-11-19T10:12:50;12.10;92.00
4386;DHT22;2207;53.540;10.042;2023-11-19T10:15:19;12.00;92.30
4386;DHT22;2207;53.540;10.042;2023-11-19T10:17:49;12.00;92.50
4386;DHT22;2207;53.540;10.042;2023-11-19T10:20:16;12.20;92.90
4386;DHT22;2207;53.540;10.042;2023-11-19T10:22:42;12.30;93.00
4386;DHT22;2207;53.540;10.042;2023-11-19T10:25:21;12.50;93.00
4386;DHT22;2207;53.540;10.042;2023-11-19T10:27:48;12.60;92.70
4386;DHT22;2207;53.540;10.042;2023-11-19T10:30:18;12.60;92.50
4386;DHT22;2207;53.540;10.042;2023-11-19T10:32:47;12.50;92.20
4386;DHT22;2207;53.540;10.042;2023-11-19T10:35:27;12.50;92.30
4386;DHT22;2207;53.540;10.042;2023-11-19T10:37:54;12.60;92.20
4386;DHT22;2207;53.540;10.042;2023-11-19T10:40:21;12.60;92.40
4386;DHT22;2207;53.540;10.042;2023-11-19T10:42:47;12.60;92.10
4386;DHT22;2207;53.540;10.042;2023-11-19T10:45:24;12.60;91.80
4386;DHT22;2207;53.540;10.042;2023-11-19T10:47:51;12.60;91.80
4386;DHT22;2207;53.540;10.042;2023-11-19T10:50:18;12.60;91.80
4386;DHT22;2207;53.540;10.042;2023-11-19T10:52:45;12.60;91.70
4386;DHT22;2207;53.540;10.042;2023-11-19T10:55:13;12.50;91.60
4386;DHT22;2207;53.540;10.042;2023-11-19T10:57:40;12.40;91.60
4386;DHT22;2207;53.540;10.042;2023-11-19T11:00:10;12.50;91.90
4386;DHT22;2207;53.540;10.042;2023-11-19T11:02:40;12.50;92.20
4386;DHT22;2207;53.540;10.042;2023-11-19T11:05:07;12.60;92.00
4386;DHT22;2207;53.540;10.042;2023-11-19T11:07:34;12.70;91.90
4386;DHT22;2207;53.540;10.042;2023-11-19T11:10:01;12.70;91.60
4386;DHT22;2207;53.540;10.042;2023-11-19T11:12:28;12.60;91.20
4386;DHT22;2207;53.540;10.042;2023-11-19T11:14:56;12.70;91.30
4386;DHT22;2207;53.540;10.042;2023-11-19T11:17:24;12.70;91.30
4386;DHT22;2207;53.540;10.042;2023-11-19T11:19:52;12.70;91.40
4386;DHT22;2207;53.540;10.042;2023-11-19T11:22:18;12.70;91.50
4386;DHT22;2207;53.540;10.042;2023-11-19T11:24:54;12.70;91.20
4386;DHT22;2207;53.540;10.042;2023-11-19T11:27:36;12.60;91.00
4386;DHT22;2207;53.540;10.042;2023-11-19T11:30:07;12.50;91.00
4386;DHT22;2207;53.540;10.042;2023-11-19T11:32:39;12.40;91.10
4386;DHT22;2207;53.540;10.042;2023-11-19T11:35:12;12.40;91.40
4386;DHT22;2207;53.540;10.042;2023-11-19T11:37:43;12.50;91.60
4386;DHT22;2207;53.540;10.042;2023-11-19T11:40:13;12.60;91.60
4386;DHT22;2207;53.540;10.042;2023-11-19T11:42:41;12.70;91.60
4386;DHT22;2207;53.540;10.042;2023-11-19T11:45:08;12.80;91.30
4386;DHT22;2207;53.540;10.042;2023-11-19T11:50:19;12.90;91.50
4386;DHT22;2207;53.540;10.042;2023-11-19T11:55:33;13.20;91.80
4386;DHT22;2207;53.540;10.042;2023-11-19T11:58:01;13.30;91.50
4386;DHT22;2207;53.540;10.042;2023-11-19T12:00:29;13.50;92.00
4386;DHT22;2207;53.540;10.042;2023-11-19T12:02:56;13.90;92.20
4386;DHT22;2207;53.540;10.042;2023-11-19T12:05:25;14.00;91.30
4386;DHT22;2207;53.540;10.042;2023-11-19T12:07:54;14.00;90.90
4386;DHT22;2207;53.540;10.042;2023-11-19T12:10:20;14.00;90.80
4386;DHT22;2207;53.540;10.042;2023-11-19T12:12:48;14.10;90.90
4386;DHT22;2207;53.540;10.042;2023-11-19T12:15:14;14.10;91.00
4386;DHT22;2207;53.540;10.042;2023-11-19T12:17:48;14.10;90.50
4386;DHT22;2207;53.540;10.042;2023-11-19T12:20:18;14.10;90.10
4386;DHT22;2207;53.540;10.042;2023-11-19T12:22:46;13.90;89.50
4386;DHT22;2207;53.540;10.042;2023-11-19T12:25:14;13.80;89.10
4386;DHT22;2207;53.540;10.042;2023-11-19T12:27:43;13.60;89.20
4386;DHT22;2207;53.540;10.042;2023-11-19T12:30:10;13.40;88.70
4386;DHT22;2207;53.540;10.042;2023-11-19T12:32:37;13.20;88.70
4386;DHT22;2207;53.540;10.042;2023-11-19T12:35:04;12.90;88.80
4386;DHT22;2207;53.540;10.042;2023-11-19T12:37:30;12.80;89.20
4386;DHT22;2207;53.540;10.042;2023-11-19T12:39:58;12.70;89.50
4386;DHT22;2207;53.540;10.042;2023-11-19T12:42:34;12.60;89.40
4386;DHT22;2207;53.540;10.042;2023-11-19T12:45:01;12.50;90.00
4386;DHT22;2207;53.540;10.042;2023-11-19T12:47:29;12.50;90.30
4386;DHT22;2207;53.540;10.042;2023-11-19T12:49:56;12.50;90.50
4386;DHT22;2207;53.540;10.042;2023-11-19T12:52:25;12.60;90.50
4386;DHT22;2207;53.540;10.042;2023-11-19T12:54:52;12.60;90.60
4386;DHT22;2207;53.540;10.042;2023-11-19T12:57:20;12.70;90.60
4386;DHT22;2207;53.540;10.042;2023-11-19T12:59:56;12.80;90.60
4386;DHT22;2207;53.540;10.042;2023-11-19T13:02:23;12.80;90.40
4386;DHT22;2207;53.540;10.042;2023-11-19T13:04:49;12.90;90.50
4386;DHT22;2207;53.540;10.042;2023-11-19T13:07:20;12.90;90.40
4386;DHT22;2207;53.540;10.042;2023-11-19T13:09:46;13.00;90.50
4386;DHT22;2207;53.540;10.042;2023-11-19T13:12:13;13.10;90.30
4386;DHT22;2207;53.540;10.042;2023-11-19T13:14:42;13.10;90.10
4386;DHT22;2207;53.540;10.042;2023-11-19T13:17:13;13.00;90.10
4386;DHT22;2207;53.540;10.042;2023-11-19T13:19:40;13.00;90.40
4386;DHT22;2207;53.540;10.042;2023-11-19T13:22:06;13.10;90.40
4386;DHT22;2207;53.540;10.042;2023-11-19T13:24:33;13.10;90.30
4386;DHT22;2207;53.540;10.042;2023-11-19T13:27:00;13.10;90.30
4386;DHT22;2207;53.540;10.042;2023-11-19T13:29:27;13.20;90.30
4386;DHT22;2207;53.540;10.042;2023-11-19T13:31:55;13.20;90.10
4386;DHT22;2207;53.540;10.042;2023-11-19T13:34:21;13.10;89.50
4386;DHT22;2207;53.540;10.042;2023-11-19T13:36:48;13.00;89.20
4386;DHT22;2207;53.540;10.042;2023-11-19T13:39:15;12.90;89.50
4386;DHT22;2207;53.540;10.042;2023-11-19T13:41:48;12.80;89.60
4386;DHT22;2207;53.540;10.042;2023-11-19T13:44:15;12.80;89.60
4386;DHT22;2207;53.540;10.042;2023-11-19T13:46:44;12.80;89.70
4386;DHT22;2207;53.540;10.042;2023-11-19T13:49:14;12.80;89.70
4386;DHT22;2207;53.540;10.042;2023-11-19T13:51:41;12.70;89.40
4386;DHT22;2207;53.540;10.042;2023-11-19T13:54:08;12.60;89.50
4386;DHT22;2207;53.540;10.042;2023-11-19T13:56:34;12.60;89.80
4386;DHT22;2207;53.540;10.042;2023-11-19T13:59:01;12.60;90.10
4386;DHT22;2207;53.540;10.042;2023-11-19T14:01:27;12.70;90.10
4386;DHT22;2207;53.540;10.042;2023-11-19T14:03:54;12.80;90.00
4386;DHT22;2207;53.540;10.042;2023-11-19T14:06:22;12.80;90.00
4386;DHT22;2207;53.540;10.042;2023-11-19T14:08:49;12.90;89.90
4386;DHT22;2207;53.540;10.042;2023-11-19T14:11:16;12.90;89.30
4386;DHT22;2207;53.540;10.042;2023-11-19T14:13:42;12.80;89.10
4386;DHT22;2207;53.540;10.042;2023-11-19T14:16:09;12.80;88.90
4386;DHT22;2207;53.540;10.042;2023-11-19T14:18:37;12.70;88.90
4386;DHT22;2207;53.540;10.042;2023-11-19T14:21:04;12.70;88.60
4386;DHT22;2207;53.540;10.042;2023-11-19T14:23:32;12.60;88.60
4386;DHT22;2207;53.540;10.042;2023-11-19T14:25:59;12.60;89.00
4386;DHT22;2207;53.540;10.042;2023-11-19T14:28:25;12.50;89.50
4386;DHT22;2207;53.540;10.042;2023-11-19T14:30:52;12.50;88.90
4386;DHT22;2207;53.540;10.042;2023-11-19T14:33:22;12.50;89.10
4386;DHT22;2207;53.540;10.042;2023-11-19T14:35:48;12.30;89.00
4386;DHT22;2207;53.540;10.042;2023-11-19T14:38:15;12.20;89.40
4386;DHT22;2207;53.540;10.042;2023-11-19T14:40:43;12.10;89.70
4386;DHT22;2207;53.540;10.042;2023-11-19T14:43:10;12.10;90.00
4386;DHT22;2207;53.540;10.042;2023-11-19T14:45:36;12.00;90.10
4386;DHT22;2207;53.540;10.042;2023-11-19T14:48:03;11.90;90.20
4386;DHT22;2207;53.540;10.042;2023-11-19T14:50:30;11.90;90.30
4386;DHT22;2207;53.540;10.042;2023-11-19T14:52:57;11.80;90.50
4386;DHT22;2207;53.540;10.042;2023-11-19T14:55:23;11.80;90.60
4386;DHT22;2207;53.540;10.042;2023-11-19T14:57:53;11.80;90.60
4386;DHT22;2207;53.540;10.042;2023-11-19T15:00:19;11.70;90.60
4386;DHT22;2207;53.540;10.042;2023-11-19T15:02:46;11.70;90.70
4386;DHT22;2207;53.540;10.042;2023-11-19T15:05:13;11.70;90.80
4386;DHT22;2207;53.540;10.042;2023-11-19T15:07:40;11.60;90.80
4386;DHT22;2207;53.540;10.042;2023-11-19T15:10:07;11.60;90.90
4386;DHT22;2207;53.540;10.042;2023-11-19T15:12:38;11.70;91.00
4386;DHT22;2207;53.540;10.042;2023-11-19T15:15:08;11.60;91.00
4386;DHT22;2207;53.540;10.042;2023-11-19T15:17:38;11.60;91.10
4386;DHT22;2207;53.540;10.042;2023-11-19T15:20:06;11.70;91.20
4386;DHT22;2207;53.540;10.042;2023-11-19T15:22:32;11.60;91.10
4386;DHT22;2207;53.540;10.042;2023-11-19T15:24:59;11.60;90.70
4386;DHT22;2207;53.540;10.042;2023-11-19T15:27:26;11.50;90.60
4386;DHT22;2207;53.540;10.042;2023-11-19T15:29:53;11.50;90.70
4386;DHT22;2207;53.540;10.042;2023-11-19T15:32:21;11.50;90.80
4386;DHT22;2207;53.540;10.042;2023-11-19T15:34:47;11.40;90.80
4386;DHT22;2207;53.540;10.042;2023-11-19T15:37:14;11.40;91.00
4386;DHT22;2207;53.540;10.042;2023-11-19T15:39:41;11.40;91.10
4386;DHT22;2207;53.540;10.042;2023-11-19T15:42:07;11.40;91.30
4386;DHT22;2207;53.540;10.042;2023-11-19T15:44:36;11.40;91.30
4386;DHT22;2207;53.540;10.042;2023-11-19T15:47:02;11.50;91.40
4386;DHT22;2207;53.540;10.042;2023-11-19T15:49:31;11.50;91.40
4386;DHT22;2207;53.540;10.042;2023-11-19T15:51:58;11.50;91.50
4386;DHT22;2207;53.540;10.042;2023-11-19T15:54:25;11.50;91.40
4386;DHT22;2207;53.540;10.042;2023-11-19T15:56:51;11.50;91.50
4386;DHT22;2207;53.540;10.042;2023-11-19T15:59:18;11.40;91.50
4386;DHT22;2207;53.540;10.042;2023-11-19T16:01:46;11.50;91.60